Time;durP1;ratioP1;P1;durP2;ratioP2;P2;SDS_P1;SDS_P2;PMS_P1;PMS_P2;Temp;Humidity;BMP_temperature;BMP_pressure;BME280_temperature;BME280_humidity;BME280_pressure;Samples;Min_cycle;Max_cycle;Signal;HPM_P1;HPM_P2
2022/03/29 00:02:07;;;;;;;9.00;8.80;;;8.40;99.90;;;;;;6256788;22;20200;-87
2022/03/29 00:04:35;;;;;;;9.30;9.00;;;8.40;99.90;;;;;;6255999;22;20195;-88
2022/03/29 00:07:05;;;;;;;9.43;9.13;;;8.30;99.90;;;;;;6255613;22;20190;-88
2022/03/29 00:09:36;;;;;;;9.50;9.20;;;8.30;99.90;;;;;;6256029;22;20255;-88
2022/03/29 00:12:06;;;;;;;9.30;9.00;;;8.30;99.90;;;;;;6255588;22;20205;-88
2022/03/29 00:14:42;;;;;;;9.20;8.90;;;8.40;99.90;;;;;;6255666;22;20197;-88
2022/03/29 00:17:15;;;;;;;8.80;8.60;;;8.40;99.90;;;;;;6256584;22;20193;-87
2022/03/29 00:19:45;;;;;;;8.83;8.63;;;8.30;99.90;;;;;;6255125;22;20198;-88
2022/03/29 00:22:14;;;;;;;9.10;8.83;;;8.30;99.90;;;;;;6255709;22;20210;-87
2022/03/29 00:24:41;;;;;;;8.90;8.70;;;8.30;99.90;;;;;;6255041;22;20249;-88
2022/03/29 00:27:14;;;;;;;8.87;8.67;;;8.30;99.90;;;;;;6257853;22;20190;-88
2022/03/29 00:29:43;;;;;;;9.20;8.90;;;8.30;99.90;;;;;;6259045;22;20213;-88
2022/03/29 00:32:13;;;;;;;9.20;8.90;;;8.20;99.90;;;;;;6260520;22;20195;-88
2022/03/29 00:34:42;;;;;;;8.90;8.70;;;8.10;99.90;;;;;;6258159;22;20198;-88
2022/03/29 00:37:14;;;;;;;9.00;8.80;;;8.10;99.90;;;;;;6257709;22;20249;-87
2022/03/29 00:39:42;;;;;;;9.33;9.03;;;8.00;99.90;;;;;;6280013;22;20210;-83
2022/03/29 00:42:11;;;;;;;9.00;8.77;;;8.00;99.90;;;;;;6290992;22;20197;-83
2022/03/29 00:44:39;;;;;;;8.90;8.70;;;8.00;99.90;;;;;;6290658;22;20205;-83
2022/03/29 00:47:08;;;;;;;9.23;8.93;;;8.10;99.90;;;;;;6291036;22;20190;-83
2022/03/29 00:49:36;;;;;;;8.97;8.77;;;8.10;99.90;;;;;;6290655;22;20268;-83
2022/03/29 00:52:05;;;;;;;9.20;8.90;;;8.00;99.90;;;;;;6289567;22;20248;-83
2022/03/29 00:54:37;;;;;;;9.20;8.90;;;8.00;99.90;;;;;;6291711;22;20197;-83
2022/03/29 00:57:06;;;;;;;9.00;8.80;;;8.00;99.90;;;;;;6292327;22;20259;-83
2022/03/29 00:59:38;;;;;;;8.80;8.60;;;8.00;99.90;;;;;;6292071;22;20227;-83
2022/03/29 01:02:07;;;;;;;8.93;8.73;;;8.00;99.90;;;;;;6291498;22;20200;-82
2022/03/29 01:04:35;;;;;;;8.80;8.60;;;7.90;99.90;;;;;;6292037;22;20194;-83
2022/03/29 01:07:03;;;;;;;8.90;8.70;;;7.90;99.90;;;;;;6292239;22;20190;-84
2022/03/29 01:09:34;;;;;;;9.00;8.80;;;7.90;99.90;;;;;;6301082;22;20185;-82
2022/03/29 01:12:02;;;;;;;9.30;9.00;;;7.80;99.90;;;;;;6310225;22;20197;-83
2022/03/29 01:14:31;;;;;;;9.30;9.00;;;7.80;99.90;;;;;;6304324;22;20224;-82
2022/03/29 01:19:50;;;;;;;9.10;8.83;;;7.80;99.90;;;;;;6303131;22;20189;-83
2022/03/29 01:22:20;;;;;;;9.10;8.80;;;7.80;99.90;;;;;;6301707;22;20190;-83
2022/03/29 01:24:48;;;;;;;9.00;8.80;;;7.70;99.90;;;;;;6294427;22;20252;-83
2022/03/29 01:27:16;;;;;;;9.30;9.00;;;7.80;99.90;;;;;;6293956;22;20248;-83
2022/03/29 01:29:45;;;;;;;9.40;9.10;;;7.70;99.90;;;;;;6294110;22;20202;-83
2022/03/29 01:32:13;;;;;;;9.30;9.00;;;7.70;99.90;;;;;;6292660;22;20189;-83
2022/03/29 01:34:43;;;;;;;9.20;8.90;;;7.70;99.90;;;;;;6293069;22;20255;-84
2022/03/29 01:37:12;;;;;;;8.93;8.73;;;7.70;99.90;;;;;;6292953;22;20194;-84
2022/03/29 01:39:41;;;;;;;9.30;9.00;;;7.70;99.90;;;;;;6293503;22;20205;-84
2022/03/29 01:42:09;;;;;;;9.20;8.90;;;7.70;99.90;;;;;;6293183;22;20210;-84
2022/03/29 01:44:37;;;;;;;9.37;9.07;;;7.70;99.90;;;;;;6295821;22;20197;-83
2022/03/29 01:47:05;;;;;;;9.03;8.80;;;7.60;99.90;;;;;;6304381;22;20189;-83
2022/03/29 01:49:33;;;;;;;9.20;8.90;;;7.50;99.90;;;;;;6308563;22;20193;-83
2022/03/29 01:52:02;;;;;;;8.90;8.70;;;7.60;99.90;;;;;;6308647;22;20262;-83
2022/03/29 01:54:33;;;;;;;9.40;9.10;;;7.60;99.90;;;;;;6307891;22;20193;-83
2022/03/29 01:57:02;;;;;;;9.00;8.80;;;7.60;99.90;;;;;;6301391;22;20193;-83
2022/03/29 02:00:30;;;;;;;9.00;8.80;;;7.60;99.90;;;;;;6299320;22;20228;-84
2022/03/29 02:02:17;;;;;;;8.90;8.70;;;7.60;99.90;;;;;;6293207;22;20236;-83
2022/03/29 02:04:45;;;;;;;8.93;8.73;;;7.60;99.90;;;;;;6293220;22;20259;-83
2022/03/29 02:07:13;;;;;;;8.60;8.40;;;7.60;99.90;;;;;;6293361;22;20205;-84
2022/03/29 02:09:41;;;;;;;8.77;8.57;;;7.60;99.90;;;;;;6293106;22;20197;-84
2022/03/29 02:12:12;;;;;;;8.77;8.57;;;7.60;99.90;;;;;;6292612;22;20189;-84
2022/03/29 02:14:39;;;;;;;8.80;8.60;;;7.60;99.90;;;;;;6292658;22;20202;-84
2022/03/29 02:17:08;;;;;;;8.70;8.50;;;7.60;99.90;;;;;;6292826;22;20194;-84
2022/03/29 02:19:35;;;;;;;8.73;8.53;;;7.60;99.90;;;;;;6293519;22;20252;-83
2022/03/29 02:22:03;;;;;;;8.90;8.70;;;7.60;99.90;;;;;;6293115;22;20193;-84
2022/03/29 02:24:31;;;;;;;8.63;8.43;;;7.60;99.90;;;;;;6292546;22;20190;-84
2022/03/29 02:26:59;;;;;;;8.87;8.67;;;7.60;99.90;;;;;;6292786;22;20201;-84
2022/03/29 02:29:28;;;;;;;9.30;9.00;;;7.60;99.90;;;;;;6292617;22;20209;-84
2022/03/29 02:31:55;;;;;;;9.00;8.80;;;7.60;99.90;;;;;;6291717;22;20651;-83
2022/03/29 02:34:23;;;;;;;9.20;8.90;;;7.60;99.90;;;;;;6292745;22;20267;-84
2022/03/29 02:36:51;;;;;;;9.30;9.00;;;7.50;99.90;;;;;;6291678;22;20225;-84
2022/03/29 02:39:19;;;;;;;9.17;8.87;;;7.50;99.90;;;;;;6291291;22;20269;-84
2022/03/29 02:41:46;;;;;;;9.30;9.00;;;7.50;99.90;;;;;;6292427;22;20193;-84
2022/03/29 02:44:14;;;;;;;8.97;8.77;;;7.50;99.90;;;;;;6291053;22;20193;-84
2022/03/29 02:46:44;;;;;;;9.60;9.30;;;7.50;99.90;;;;;;6291417;22;20197;-83
2022/03/29 02:49:14;;;;;;;9.20;8.90;;;7.50;99.90;;;;;;6291589;22;20209;-84
2022/03/29 02:51:42;;;;;;;9.20;8.90;;;7.50;99.90;;;;;;6291830;22;20194;-83
2022/03/29 02:54:10;;;;;;;9.40;9.10;;;7.50;99.90;;;;;;6291555;22;20239;-84
2022/03/29 02:56:38;;;;;;;9.23;8.93;;;7.40;99.90;;;;;;6296589;22;20263;-83
2022/03/29 02:59:06;;;;;;;9.30;9.00;;;7.30;99.90;;;;;;6301168;22;20204;-84
2022/03/29 03:01:34;;;;;;;8.80;8.60;;;7.20;99.90;;;;;;6293789;22;20194;-83
2022/03/29 03:04:03;;;;;;;9.27;8.97;;;7.20;99.90;;;;;;6292343;22;20197;-84
2022/03/29 03:06:31;;;;;;;9.40;9.10;;;7.10;99.90;;;;;;6292444;22;20271;-83
2022/03/29 03:08:58;;;;;;;9.30;9.00;;;7.10;99.90;;;;;;6292281;22;20208;-84
2022/03/29 03:11:26;;;;;;;9.30;9.00;;;7.10;99.90;;;;;;6291819;22;20252;-83
2022/03/29 03:13:54;;;;;;;9.20;8.90;;;7.00;99.90;;;;;;6291851;22;20333;-82
2022/03/29 03:16:22;;;;;;;8.93;8.73;;;6.90;99.90;;;;;;6291643;22;20197;-84
2022/03/29 03:18:49;;;;;;;8.87;8.67;;;6.80;99.90;;;;;;6291776;22;20257;-84
2022/03/29 03:21:19;;;;;;;9.00;8.80;;;6.80;99.90;;;;;;6292045;22;20252;-83
2022/03/29 03:23:46;;;;;;;8.87;8.67;;;6.80;99.90;;;;;;6290866;22;21005;-83
2022/03/29 03:26:14;;;;;;;8.77;8.57;;;6.80;99.90;;;;;;6291604;22;20196;-83
2022/03/29 03:28:42;;;;;;;8.70;8.50;;;6.80;99.90;;;;;;6308818;22;20186;-82
2022/03/29 03:31:10;;;;;;;9.03;8.80;;;6.80;99.90;;;;;;6301266;22;20259;-84
2022/03/29 03:33:38;;;;;;;8.90;8.70;;;6.80;99.90;;;;;;6293454;22;20197;-83
2022/03/29 03:36:07;;;;;;;8.87;8.67;;;6.80;99.90;;;;;;6293056;22;20248;-83
2022/03/29 03:38:36;;;;;;;8.90;8.70;;;6.80;99.90;;;;;;6292215;22;20205;-84
2022/03/29 03:41:06;;;;;;;8.70;8.50;;;6.80;99.90;;;;;;6292480;22;20243;-83
2022/03/29 03:43:34;;;;;;;8.77;8.57;;;6.70;99.90;;;;;;6291445;22;20193;-83
2022/03/29 03:46:02;;;;;;;8.90;8.70;;;6.70;99.90;;;;;;6291334;22;20201;-83
2022/03/29 03:48:29;;;;;;;8.80;8.60;;;6.70;99.90;;;;;;6300716;22;20213;-83
2022/03/29 03:50:57;;;;;;;8.87;8.67;;;6.70;99.90;;;;;;6306847;22;20305;-83
2022/03/29 03:53:25;;;;;;;8.70;8.50;;;6.60;99.90;;;;;;6306283;22;20202;-83
2022/03/29 03:55:54;;;;;;;8.60;8.40;;;6.60;99.90;;;;;;6306345;22;20224;-83
2022/03/29 03:58:22;;;;;;;8.57;8.37;;;6.60;99.90;;;;;;6301142;22;20209;-83
2022/03/29 04:00:52;;;;;;;8.70;8.50;;;6.60;99.90;;;;;;6299946;22;20201;-84
2022/03/29 04:03:22;;;;;;;8.57;8.37;;;6.60;99.90;;;;;;6300237;22;20198;-84
2022/03/29 04:05:52;;;;;;;8.63;8.43;;;6.50;99.90;;;;;;6300695;22;20186;-84
2022/03/29 04:08:19;;;;;;;9.00;8.80;;;6.50;99.90;;;;;;6302967;22;20201;-84
2022/03/29 04:10:47;;;;;;;8.90;8.70;;;6.50;99.90;;;;;;6305316;22;20216;-83
2022/03/29 04:13:16;;;;;;;8.83;8.63;;;6.50;99.90;;;;;;6301937;22;20196;-84
2022/03/29 04:15:44;;;;;;;9.30;9.00;;;6.50;99.90;;;;;;6300708;22;20198;-84
2022/03/29 04:18:12;;;;;;;9.50;9.20;;;6.50;99.90;;;;;;6299914;22;20197;-84
2022/03/29 04:20:40;;;;;;;9.47;9.17;;;6.40;99.90;;;;;;6296736;22;20197;-84
2022/03/29 04:23:08;;;;;;;9.40;9.10;;;6.40;99.90;;;;;;6294082;22;20277;-84
2022/03/29 04:25:36;;;;;;;9.40;9.10;;;6.40;99.90;;;;;;6294846;22;20215;-84
2022/03/29 04:28:05;;;;;;;9.00;8.80;;;6.40;99.90;;;;;;6294554;22;20200;-83
2022/03/29 04:30:34;;;;;;;9.30;9.00;;;6.40;99.90;;;;;;6293735;22;20753;-84
2022/03/29 04:33:02;;;;;;;9.63;9.33;;;6.30;99.90;;;;;;6292638;22;20197;-83
2022/03/29 04:35:29;;;;;;;9.40;9.10;;;6.30;99.90;;;;;;6294427;22;20248;-84
2022/03/29 04:37:57;;;;;;;9.50;9.20;;;6.30;99.90;;;;;;6293925;22;20190;-84
2022/03/29 04:40:24;;;;;;;9.37;9.07;;;6.30;99.90;;;;;;6294163;22;20224;-84
2022/03/29 04:42:53;;;;;;;9.27;8.97;;;6.30;99.90;;;;;;6293255;22;20198;-84
2022/03/29 04:45:21;;;;;;;9.10;8.87;;;6.20;99.90;;;;;;6291190;22;20256;-84
2022/03/29 04:47:50;;;;;;;9.50;9.20;;;6.20;99.90;;;;;;6292607;22;20212;-84
2022/03/29 04:50:18;;;;;;;10.07;9.77;;;6.20;99.90;;;;;;6294150;22;20200;-84
2022/03/29 04:52:47;;;;;;;10.50;10.20;;;6.20;99.90;;;;;;6293270;22;20284;-83
2022/03/29 04:55:16;;;;;;;10.10;9.80;;;6.20;99.90;;;;;;6292916;22;20204;-84
2022/03/29 04:57:45;;;;;;;10.30;10.00;;;6.20;99.90;;;;;;6292007;22;20198;-83
2022/03/29 05:00:15;;;;;;;10.27;9.97;;;6.20;99.90;;;;;;6292869;22;20197;-84
2022/03/29 05:02:43;;;;;;;10.30;10.00;;;6.20;99.90;;;;;;6292598;22;20202;-84
2022/03/29 05:05:13;;;;;;;10.37;10.07;;;6.20;99.90;;;;;;6292797;22;20201;-84
2022/03/29 05:07:41;;;;;;;10.30;10.00;;;6.10;99.90;;;;;;6293405;22;20194;-84
2022/03/29 05:10:11;;;;;;;10.20;9.90;;;6.10;99.90;;;;;;6293241;22;20206;-84
2022/03/29 05:12:43;;;;;;;9.90;9.60;;;6.10;99.90;;;;;;6293109;22;20200;-84
2022/03/29 05:15:12;;;;;;;10.00;9.70;;;6.10;99.90;;;;;;6293716;22;20200;-83
2022/03/29 05:17:42;;;;;;;9.90;9.60;;;6.10;99.90;;;;;;6294312;22;20269;-84
2022/03/29 05:20:13;;;;;;;10.20;9.90;;;6.10;99.90;;;;;;6298925;22;20177;-83
2022/03/29 05:22:45;;;;;;;10.00;9.70;;;6.00;99.90;;;;;;6308516;22;20181;-83
2022/03/29 05:25:14;;;;;;;10.30;10.00;;;5.90;99.90;;;;;;6308940;22;20194;-83
2022/03/29 05:27:42;;;;;;;10.33;10.03;;;5.70;99.90;;;;;;6290553;22;20750;-84
2022/03/29 05:30:12;;;;;;;10.20;9.90;;;5.50;99.90;;;;;;6289635;22;20216;-84
2022/03/29 05:32:40;;;;;;;10.60;10.30;;;5.40;99.90;;;;;;6289264;22;20200;-84
2022/03/29 05:35:12;;;;;;;10.50;10.20;;;5.40;99.90;;;;;;6294905;22;20193;-84
2022/03/29 05:37:42;;;;;;;10.30;10.00;;;5.40;99.90;;;;;;6302214;22;20204;-84
2022/03/29 05:40:12;;;;;;;10.50;10.20;;;5.40;99.90;;;;;;6298301;22;20272;-84
2022/03/29 05:42:40;;;;;;;10.50;10.20;;;5.40;99.90;;;;;;6296374;22;20245;-84
2022/03/29 05:45:09;;;;;;;10.43;10.13;;;5.50;99.90;;;;;;6299943;22;20197;-83
2022/03/29 05:50:24;;;;;;;10.40;10.10;;;5.60;99.90;;;;;;6296224;22;20257;-84
2022/03/29 05:52:52;;;;;;;9.83;9.53;;;5.60;99.90;;;;;;6296004;22;20189;-83
2022/03/29 05:55:20;;;;;;;10.20;9.90;;;5.60;99.90;;;;;;6294783;22;20221;-83
2022/03/29 05:57:49;;;;;;;10.47;10.17;;;5.70;99.90;;;;;;6294012;22;20255;-83
2022/03/29 06:00:21;;;;;;;10.47;10.17;;;5.70;99.90;;;;;;6293827;22;20197;-83
2022/03/29 06:02:49;;;;;;;10.60;10.30;;;5.80;99.90;;;;;;6294112;22;20216;-83
2022/03/29 06:05:16;;;;;;;10.43;10.13;;;5.90;99.90;;;;;;6295008;22;20190;-83
2022/03/29 06:07:46;;;;;;;10.53;10.23;;;5.90;99.90;;;;;;6295620;22;20224;-83
2022/03/29 06:10:14;;;;;;;10.57;10.27;;;6.00;99.90;;;;;;6295517;22;20228;-82
2022/03/29 06:12:46;;;;;;;10.50;10.20;;;6.00;99.90;;;;;;6295338;22;20201;-84
2022/03/29 06:15:15;;;;;;;10.80;10.50;;;6.10;99.90;;;;;;6294677;22;20284;-84
2022/03/29 06:17:43;;;;;;;10.33;10.03;;;6.10;99.90;;;;;;6293829;22;20203;-85
2022/03/29 06:20:12;;;;;;;10.37;10.07;;;6.20;99.90;;;;;;6294834;22;20190;-83
2022/03/29 06:22:44;;;;;;;10.30;10.00;;;6.20;99.90;;;;;;6293404;22;20252;-83
2022/03/29 06:25:13;;;;;;;10.13;9.83;;;6.40;99.90;;;;;;6294058;22;20197;-84
2022/03/29 06:27:42;;;;;;;10.07;9.77;;;6.40;99.90;;;;;;6294222;22;20561;-83
2022/03/29 06:30:12;;;;;;;10.07;9.77;;;6.40;99.90;;;;;;6294192;22;20193;-83
2022/03/29 06:32:47;;;;;;;9.87;9.57;;;6.50;99.90;;;;;;6294750;22;20201;-83
2022/03/29 06:35:15;;;;;;;10.00;9.70;;;6.50;99.90;;;;;;6295120;22;20272;-83
2022/03/29 06:37:43;;;;;;;10.00;9.70;;;6.60;99.90;;;;;;6293251;22;20193;-84
2022/03/29 06:40:17;;;;;;;10.40;10.10;;;6.60;99.90;;;;;;6284502;22;20205;-88
2022/03/29 06:42:49;;;;;;;10.70;10.40;;;6.70;99.90;;;;;;6288734;22;20200;-89
2022/03/29 06:45:19;;;;;;;10.53;10.23;;;6.80;99.90;;;;;;6289784;22;20193;-88
2022/03/29 06:47:50;;;;;;;10.70;10.40;;;6.90;99.90;;;;;;6289827;22;20251;-89
2022/03/29 06:53:08;;;;;;;10.40;10.10;;;7.10;99.90;;;;;;6288011;22;20208;-89
2022/03/29 06:55:38;;;;;;;10.47;10.17;;;7.20;99.90;;;;;;6290421;22;20193;-88
2022/03/29 06:58:06;;;;;;;10.07;9.77;;;7.30;99.90;;;;;;6289410;22;20193;-89
2022/03/29 07:00:36;;;;;;;10.00;9.70;;;7.40;99.90;;;;;;6288256;22;20259;-89
2022/03/29 07:03:04;;;;;;;10.20;9.90;;;7.40;99.90;;;;;;6288546;22;20194;-89
2022/03/29 07:05:38;;;;;;;10.47;10.17;;;7.50;99.90;;;;;;6288491;22;20200;-88
2022/03/29 07:08:10;;;;;;;10.23;9.93;;;7.60;99.90;;;;;;6289337;22;20193;-88
2022/03/29 07:13:26;;;;;;;10.20;9.90;;;7.60;99.90;;;;;;6288624;22;20181;-89
2022/03/29 07:15:55;;;;;;;10.37;10.07;;;7.70;99.90;;;;;;6287931;22;20244;-88
2022/03/29 07:18:23;;;;;;;10.30;10.00;;;7.90;99.90;;;;;;6288105;22;20212;-89
2022/03/29 07:20:51;;;;;;;10.63;10.33;;;8.00;99.90;;;;;;6288132;22;20204;-89
2022/03/29 07:23:19;;;;;;;10.13;9.83;;;8.00;99.90;;;;;;6287330;22;20216;-88
2022/03/29 07:26:04;;;;;;;10.60;10.30;;;8.10;99.90;;;;;;6287664;22;20203;-89
2022/03/29 07:28:33;;;;;;;10.60;10.30;;;8.30;99.90;;;;;;6289451;22;20197;-89
2022/03/29 07:31:03;;;;;;;10.70;10.40;;;8.50;99.90;;;;;;6287613;22;20200;-89
2022/03/29 07:33:34;;;;;;;10.67;10.37;;;8.60;99.90;;;;;;6286595;22;20201;-89
2022/03/29 07:36:03;;;;;;;10.40;10.10;;;8.90;99.90;;;;;;6287077;22;20241;-89
2022/03/29 07:38:31;;;;;;;10.70;10.40;;;9.10;99.90;;;;;;6288529;22;20194;-89
2022/03/29 07:41:10;;;;;;;10.90;10.60;;;9.20;99.90;;;;;;6288266;22;20273;-89
2022/03/29 07:43:41;;;;;;;10.43;10.13;;;9.40;99.90;;;;;;6288115;22;20244;-89
2022/03/29 07:46:14;;;;;;;10.40;10.10;;;9.60;99.90;;;;;;6287583;22;20197;-89
2022/03/29 07:48:44;;;;;;;10.30;10.00;;;9.80;99.90;;;;;;6286973;22;20203;-89
2022/03/29 07:51:14;;;;;;;10.40;10.10;;;10.00;99.90;;;;;;6287071;22;20220;-88
2022/03/29 07:53:47;;;;;;;10.40;10.10;;;10.20;99.90;;;;;;6289557;22;20200;-89
2022/03/29 07:56:27;;;;;;;10.30;10.00;;;10.30;99.90;;;;;;6291184;22;20194;-89
2022/03/29 07:59:04;;;;;;;10.43;10.13;;;10.50;99.90;;;;;;6290195;22;20201;-88
2022/03/29 08:01:38;;;;;;;10.50;10.20;;;10.80;99.90;;;;;;6289655;22;20186;-89
2022/03/29 08:04:11;;;;;;;10.40;10.10;;;10.90;99.90;;;;;;6288640;22;20193;-89
2022/03/29 08:06:46;;;;;;;10.80;10.50;;;11.10;99.90;;;;;;6288847;22;20252;-88
2022/03/29 08:09:24;;;;;;;10.50;10.20;;;11.20;99.90;;;;;;6290536;22;20201;-89
2022/03/29 08:12:10;;;;;;;10.70;10.40;;;11.40;99.90;;;;;;6289481;22;20217;-89
2022/03/29 08:15:01;;;;;;;10.73;10.43;;;11.60;99.90;;;;;;6289457;22;20613;-88
2022/03/29 08:17:32;;;;;;;10.87;10.57;;;11.80;99.90;;;;;;6288237;22;20197;-89
2022/03/29 08:20:04;;;;;;;10.70;10.40;;;11.80;99.90;;;;;;6289377;22;20201;-89
2022/03/29 08:22:46;;;;;;;10.70;10.40;;;11.80;99.90;;;;;;6290333;22;20201;-89
2022/03/29 08:25:16;;;;;;;10.40;10.10;;;11.90;99.90;;;;;;6291363;22;20189;-89
2022/03/29 08:27:56;;;;;;;10.43;10.13;;;12.00;99.90;;;;;;6291621;22;20190;-89
2022/03/29 08:30:29;;;;;;;10.70;10.40;;;12.20;99.90;;;;;;6291741;22;20200;-89
2022/03/29 08:33:02;;;;;;;10.57;10.27;;;12.20;99.90;;;;;;6289848;22;20248;-89
2022/03/29 08:35:32;;;;;;;10.70;10.40;;;12.40;99.90;;;;;;6288554;22;20201;-89
2022/03/29 08:38:08;;;;;;;10.57;10.27;;;12.60;99.90;;;;;;6288440;22;20194;-89
2022/03/29 08:40:44;;;;;;;10.53;10.23;;;12.80;99.90;;;;;;6287194;22;20667;-89
2022/03/29 08:43:16;;;;;;;10.83;10.53;;;12.90;99.90;;;;;;6286632;22;20216;-89
2022/03/29 08:45:52;;;;;;;10.57;10.27;;;13.20;99.90;;;;;;6289228;22;20259;-89
2022/03/29 08:48:31;;;;;;;11.10;10.80;;;13.20;99.90;;;;;;6307991;22;20184;-89
2022/03/29 08:51:06;;;;;;;10.80;10.50;;;13.30;99.90;;;;;;6311332;22;20236;-89
2022/03/29 08:53:45;;;;;;;10.80;10.50;;;13.40;99.90;;;;;;6294453;22;20196;-89
2022/03/29 08:56:15;;;;;;;10.50;10.20;;;13.70;99.90;;;;;;6287979;22;20255;-89
2022/03/29 08:58:51;;;;;;;10.50;10.20;;;14.00;99.90;;;;;;6300633;22;20202;-90
2022/03/29 09:01:23;;;;;;;10.40;10.10;;;14.00;99.90;;;;;;6310298;22;20170;-89
2022/03/29 09:04:12;;;;;;;10.63;10.33;;;14.00;99.90;;;;;;6291243;22;20241;-89
2022/03/29 09:07:02;;;;;;;10.53;10.23;;;14.30;99.90;;;;;;6291637;22;20226;-89
2022/03/29 09:09:31;;;;;;;10.43;10.13;;;14.60;99.90;;;;;;6299084;22;20225;-88
2022/03/29 09:12:12;;;;;;;10.10;9.80;;;14.60;99.90;;;;;;6302930;22;20198;-87
2022/03/29 09:14:58;;;;;;;9.93;9.63;;;14.50;99.90;;;;;;6292035;22;20221;-88
2022/03/29 09:17:34;;;;;;;9.90;9.60;;;14.60;99.90;;;;;;6289601;22;20273;-89
2022/03/29 09:20:15;;;;;;;10.17;9.87;;;14.70;99.90;;;;;;6289235;22;20205;-88
2022/03/29 09:22:50;;;;;;;10.00;9.70;;;14.80;99.90;;;;;;6290661;22;20220;-88
2022/03/29 09:25:35;;;;;;;10.10;9.80;;;14.80;99.90;;;;;;6308931;22;20191;-88
2022/03/29 09:28:12;;;;;;;10.20;9.90;;;15.10;99.90;;;;;;6312047;22;20196;-89
2022/03/29 09:30:58;;;;;;;10.10;9.80;;;15.10;99.90;;;;;;6312122;22;20177;-87
2022/03/29 09:33:36;;;;;;;10.25;9.95;;;15.20;99.90;;;;;;6312117;22;20181;-87
2022/03/29 09:36:07;;;;;;;10.77;10.48;;;15.50;99.90;;;;;;6312208;22;20193;-88
2022/03/29 09:38:42;;;;;;;10.73;10.43;;;15.70;99.90;;;;;;6311452;22;20225;-87
2022/03/29 09:41:28;;;;;;;10.90;10.60;;;15.70;99.90;;;;;;6311411;22;20220;-88
2022/03/29 09:44:12;;;;;;;10.40;10.10;;;15.90;99.90;;;;;;6310213;22;20177;-88
2022/03/29 09:47:15;;;;;;;10.60;10.30;;;16.30;99.90;;;;;;6300428;22;20258;-88
2022/03/29 09:50:19;;;;;;;10.60;10.30;;;16.40;99.90;;;;;;6296173;22;20241;-88
2022/03/29 09:52:50;;;;;;;10.68;10.38;;;16.30;99.90;;;;;;6306142;22;20204;-89
2022/03/29 09:55:30;;;;;;;10.60;10.30;;;16.30;99.90;;;;;;6294829;22;20198;-89
2022/03/29 09:57:59;;;;;;;11.00;10.70;;;16.60;99.90;;;;;;6292489;22;20245;-88
2022/03/29 10:00:36;;;;;;;10.80;10.50;;;16.80;99.90;;;;;;6290543;22;20205;-88
2022/03/29 10:03:11;;;;;;;10.90;10.60;;;17.00;99.90;;;;;;6287838;22;20201;-87
2022/03/29 10:05:44;;;;;;;10.77;10.48;;;17.20;99.90;;;;;;6288487;22;20193;-88
2022/03/29 10:11:01;;;;;;;10.50;10.20;;;17.20;99.90;;;;;;6290551;22;20190;-88
2022/03/29 10:13:30;;;;;;;10.68;10.38;;;17.40;99.90;;;;;;6289956;22;20205;-88
2022/03/29 10:16:00;;;;;;;10.30;10.00;;;17.50;99.90;;;;;;6290156;22;20204;-88
2022/03/29 10:18:41;;;;;;;10.60;10.30;;;17.50;99.90;;;;;;6290587;22;20193;-87
2022/03/29 10:21:13;;;;;;;10.55;10.25;;;17.70;99.90;;;;;;6291110;22;20224;-88
2022/03/29 10:23:50;;;;;;;10.35;10.05;;;17.80;99.90;;;;;;6291129;22;20197;-88
2022/03/29 10:26:27;;;;;;;10.68;10.38;;;17.70;99.90;;;;;;6289365;22;20189;-88
2022/03/29 10:28:58;;;;;;;10.80;10.50;;;18.00;99.90;;;;;;6289616;22;20208;-89
2022/03/29 10:31:56;;;;;;;10.68;10.38;;;18.10;99.90;;;;;;6289739;22;20198;-89
2022/03/29 10:34:30;;;;;;;10.80;10.50;;;18.30;99.90;;;;;;6288970;22;20193;-88
2022/03/29 10:37:27;;;;;;;10.80;10.50;;;18.50;99.90;;;;;;6289875;22;20209;-89
2022/03/29 10:39:59;;;;;;;10.93;10.63;;;18.40;99.90;;;;;;6291877;22;20263;-89
2022/03/29 10:42:46;;;;;;;10.73;10.43;;;18.60;99.90;;;;;;6290462;22;20190;-88
2022/03/29 10:45:18;;;;;;;10.98;10.68;;;18.80;99.90;;;;;;6290433;22;20194;-89
2022/03/29 10:48:06;;;;;;;10.82;10.52;;;19.10;99.90;;;;;;6288887;22;20201;-88
2022/03/29 10:51:00;;;;;;;11.00;10.70;;;19.40;99.90;;;;;;6289398;22;20201;-88
2022/03/29 10:53:36;;;;;;;10.82;10.52;;;19.80;99.90;;;;;;6290056;22;20312;-88
2022/03/29 10:56:26;;;;;;;11.05;10.75;;;19.90;99.90;;;;;;6291609;22;20251;-88
2022/03/29 10:59:19;;;;;;;11.07;10.77;;;19.60;99.90;;;;;;6293623;22;20197;-89
2022/03/29 11:02:15;;;;;;;11.27;10.90;;;19.90;99.90;;;;;;6303419;22;20190;-88
2022/03/29 11:05:06;;;;;;;10.90;10.60;;;19.80;99.90;;;;;;6310571;22;20177;-89
2022/03/29 11:07:41;;;;;;;10.95;10.65;;;19.40;99.90;;;;;;6308786;22;20182;-88
2022/03/29 11:10:16;;;;;;;11.00;10.70;;;18.90;99.90;;;;;;6310734;22;20197;-89
2022/03/29 11:12:57;;;;;;;11.00;10.70;;;18.90;99.90;;;;;;6311419;22;20189;-89
2022/03/29 11:15:50;;;;;;;11.00;10.70;;;19.00;99.90;;;;;;6311805;22;20189;-88
2022/03/29 11:18:45;;;;;;;10.90;10.60;;;19.40;99.90;;;;;;6311661;22;20242;-87
2022/03/29 11:21:40;;;;;;;10.80;10.50;;;19.30;99.90;;;;;;6311178;22;20169;-88
2022/03/29 11:24:15;;;;;;;11.20;10.90;;;19.70;99.90;;;;;;6300995;22;20189;-88
2022/03/29 11:27:00;;;;;;;11.00;10.70;;;20.20;99.90;;;;;;6296871;22;20201;-89
2022/03/29 11:29:28;;;;;;;10.65;10.35;;;20.40;99.90;;;;;;6302262;22;20198;-89
2022/03/29 11:32:13;;;;;;;10.57;10.27;;;20.70;99.90;;;;;;6309538;22;20200;-88
2022/03/29 11:34:45;;;;;;;10.80;10.50;;;20.70;99.90;;;;;;6296348;22;20197;-88
2022/03/29 11:37:40;;;;;;;10.60;10.30;;;20.70;99.90;;;;;;6292425;22;20198;-88
2022/03/29 11:40:19;;;;;;;10.27;9.98;;;21.30;99.90;;;;;;6292436;22;20197;-89
2022/03/29 11:42:55;;;;;;;10.50;10.20;;;21.60;99.90;;;;;;6294787;22;20204;-88
2022/03/29 11:45:41;;;;;;;10.32;10.02;;;21.20;99.90;;;;;;6305003;22;20205;-89
2022/03/29 11:48:14;;;;;;;10.30;10.00;;;20.90;99.90;;;;;;6304847;22;20208;-88
2022/03/29 11:50:59;;;;;;;10.20;9.90;;;20.90;99.90;;;;;;6305552;22;20224;-88
2022/03/29 11:53:43;;;;;;;10.70;10.40;;;21.40;99.90;;;;;;6304275;22;20197;-88
2022/03/29 11:56:22;;;;;;;10.52;10.23;;;21.80;99.90;;;;;;6303859;22;20204;-88
2022/03/29 11:58:58;;;;;;;10.45;10.15;;;21.40;99.90;;;;;;6301390;22;20205;-88
2022/03/29 12:02:06;;;;;;;10.70;10.40;;;21.50;99.90;;;;;;5167269;27;20613;-89
2022/03/29 12:04:42;;;;;;;10.80;10.50;;;21.90;99.90;;;;;;5167930;27;20332;-88
2022/03/29 12:07:40;;;;;;;10.85;10.55;;;22.30;99.90;;;;;;5161219;27;20230;-88
2022/03/29 12:10:11;;;;;;;11.00;10.70;;;22.30;99.90;;;;;;5158471;27;20231;-88
2022/03/29 12:13:03;;;;;;;10.68;10.38;;;22.10;99.90;;;;;;5160624;27;20235;-88
2022/03/29 12:15:46;;;;;;;10.70;10.40;;;21.90;99.90;;;;;;5172787;27;20215;-88
2022/03/29 12:21:03;;;;;;;10.50;10.20;;;21.20;99.90;;;;;;5163415;27;20215;-89
2022/03/29 12:23:31;;;;;;;10.70;10.40;;;21.10;99.90;;;;;;5161485;27;20235;-89
2022/03/29 12:25:59;;;;;;;10.90;10.60;;;20.80;99.90;;;;;;5160511;27;20249;-88
2022/03/29 12:28:35;;;;;;;10.77;10.48;;;20.90;99.90;;;;;;5158982;27;20311;-87
2022/03/29 12:31:04;;;;;;;10.90;10.60;;;20.50;99.90;;;;;;5159316;27;20306;-88
2022/03/29 12:33:39;;;;;;;10.70;10.40;;;20.70;99.90;;;;;;5159216;27;20257;-88
2022/03/29 12:36:10;;;;;;;10.20;9.90;;;20.80;99.90;;;;;;5158476;27;20227;-88
2022/03/29 12:38:47;;;;;;;10.15;9.85;;;20.70;99.90;;;;;;5157657;27;20802;-87
2022/03/29 12:41:17;;;;;;;10.18;9.88;;;20.30;99.90;;;;;;5169656;22;20231;-83
2022/03/29 12:43:54;;;;;;;10.00;9.70;;;20.30;99.90;;;;;;5151788;27;20212;-82
2022/03/29 12:46:22;;;;;;;10.10;9.80;;;20.30;99.90;;;;;;5155474;27;20234;-82
2022/03/29 12:48:51;;;;;;;9.90;9.60;;;20.30;99.90;;;;;;5154110;27;20216;-82
2022/03/29 12:51:28;;;;;;;9.80;9.50;;;20.40;99.90;;;;;;5169857;27;20235;-83
2022/03/29 12:54:03;;;;;;;9.93;9.63;;;20.40;99.90;;;;;;5171824;27;20298;-83
2022/03/29 12:56:37;;;;;;;10.13;9.82;;;20.30;99.90;;;;;;5169800;27;20234;-81
2022/03/29 12:59:34;;;;;;;10.32;10.02;;;20.30;99.90;;;;;;5170457;27;20214;-82
2022/03/29 13:02:12;;;;;;;10.00;9.70;;;20.60;99.90;;;;;;5166785;27;20259;-83
2022/03/29 13:04:44;;;;;;;10.00;9.70;;;20.70;99.90;;;;;;5165628;27;20242;-83
2022/03/29 13:07:13;;;;;;;9.90;9.60;;;20.80;99.90;;;;;;5166898;27;20275;-83
2022/03/29 13:10:00;;;;;;;10.10;9.80;;;20.90;99.90;;;;;;5160834;27;20254;-83
2022/03/29 13:12:28;;;;;;;9.70;9.40;;;21.00;99.90;;;;;;5150246;27;20220;-83
2022/03/29 13:14:56;;;;;;;9.80;9.50;;;21.20;99.90;;;;;;5147198;27;20264;-82
2022/03/29 13:17:34;;;;;;;9.63;9.32;;;21.30;99.90;;;;;;5146638;27;20250;-83
2022/03/29 13:20:03;;;;;;;10.13;9.82;;;20.80;99.90;;;;;;5150182;27;20236;-83
2022/03/29 13:22:31;;;;;;;10.00;9.70;;;20.40;99.90;;;;;;5158356;27;20211;-83
2022/03/29 13:24:59;;;;;;;10.40;10.10;;;20.00;99.90;;;;;;5158917;27;20227;-83
2022/03/29 13:27:26;;;;;;;10.38;10.07;;;20.10;99.90;;;;;;5152229;27;20286;-82
2022/03/29 13:29:54;;;;;;;10.40;10.10;;;20.30;99.90;;;;;;5152422;27;20212;-82